Du har inga inställningar för hoppväder.nu

Hoppväder.nu

Senast uppdaterat 06:15

UTC-tid

2018-08-19 kl. 04:15


Sol och måne

Solen går upp 5:27 och går ner 20:24 (beräknade cirkatider)
Nästa fullmåne blir om 7 dagar (2018-08-26)

METAR

ESKN (Skavsta)
(25 minuter sedan)
ESKN 190350Z 26011KT 9999 BKN025 17/14 Q1010=



ESSB (Bromma)
(25 minuter sedan)
ESSB 190350Z AUTO 25013KT 9999 NCD 17/12 Q1010=



ESOE (Örebro)
(25 minuter sedan)
ESOE 190350Z AUTO 23009KT 9999 FEW024/// 15/13 Q1010=



ESSL (Linköping)
(25 minuter sedan)
ESSL 190350Z 27014KT 230V300 9999 FEW030 SCT210 17/12 Q1012=



ESSP (Norrköping)
(25 minuter sedan)
ESSP 190350Z 26014KT 9999 SCT027 17/13 Q1011=



TAF

ESKN (Skavsta)
(1725 minuter sedan)
ESKN 182330Z 1900/1924 23011KT 9999 -RA BKN025 PROB40 1900/1901 RA PROB40 1921/1924 RA=



ESSB (Bromma)
ESSB



ESOE (Örebro)
ESOE



ESSL (Linköping)
(45 minuter sedan)
ESSL RRA 190330Z 1904/1906 25011KT 9999 SCT020 BKN045=



ESSP (Norrköping)
(105 minuter sedan)
ESSP 190230Z 1903/1907 24012G22KT 9999 BKN018=





Kodnycklar till TAF och METAR






LHP

(Nyköping är område G1b i Södra delen)

ÖVERSIKT FÖR OMRÅDE B UTFÄRDAD 190335
GÄLLANDE DEN 19 AUGUSTI 2018 MELLAN 04 OCH 12 UTC


Väderöversikt

En västlig luftström råder över södra Sverige

Sikt under 5 kilometer eller molnbas under 1000 fot
04-06UTC: I hela området
06-10UTC: Område Södra delen
10-12UTC: Område Sydöstra delen


Måttlig eller svår isbildning
04-06UTC: Hela området utom Nordvästra delen
06-10UTC: Område Södra delen och Sydöstra delen
10-12UTC: Område Sydöstra delen


Måttlig eller svår turbulens
Väntas inte förekomma under perioden



PROGNOS FÖR OMRÅDE B DEN SÖDRA DELEN UTFÄRDAD 190335
GÄLLANDE DEN 19 AUGUSTI 2018 MELLAN 04 OCH 12 UTC

Måttlig eller svår turbulens
04-12UTC: I hela området: Väntas inte förekomma under perioden

Måttlig eller svår isbildning
04-06UTC: Område G1a,G2b,G2c,G3a,G3b,G3c: måttlig isbildning FL100 - > FL125

04-08UTC: Område G1b: måttlig isbildning FL100 - > FL125

04-10UTC: Område G1c,G3d: måttlig isbildning FL100 - > FL125

04-12UTC: Område G2a: Väntas inte förekomma under perioden

06-12UTC: Område G1a,G2b,G2c,G3a,G3b,G3c: Väntas inte förekomma under perioden

08-12UTC: Område G1b: Väntas inte förekomma under perioden

10-12UTC: Område G1c,G3d: Väntas inte förekomma under perioden


Sikt/Väder/Moln
04-06UTC: Område G3d: Sikt 1.5km - >8km i dis, regnskurar. Molnbas <500ft - >2000ft.
Område G1a,G1b,G1c,G2a,G3a,G3b: Sikt 1.5km - >8km i dis, regnskurar. Molnbas 500ft - >2000ft.
Område G3c: Sikt >8km, lokalt 1.5km - 3km i dis, regnskurar. Molnbas >2000ft, lokalt 500ft - 1000ft.

04-12UTC: Område G2b,G2c: Sikt >8km. Molnbas >2000ft.

06-08UTC: Område G1b,G1c,G3a,G3b: Sikt 3km - >8km i dis, regnskurar. Molnbas 500ft - >2000ft.
Område G3c,G3d: Sikt >8km, lokalt 3km - 5km i dis, regnskurar. Molnbas >2000ft, lokalt 500ft - 1000ft.

06-12UTC: Område G1a,G2a: Sikt >8km. Molnbas >2000ft.

08-10UTC: Område G3d: Sikt 3km - >8km i regnskurar, regn. Molnbas 1000ft - >2000ft.

08-12UTC: Område G1b,G1c,G3a,G3b,G3c: Sikt >8km. Molnbas >2000ft.

10-12UTC: Område G3d: Sikt >8km. Molnbas >2000ft.


Molnöversida
04-06UTC: Område G1a,G2b,G2c,G3a,G3b,G3c: Molnöversida > FL125.

04-08UTC: Område G1b: Molnöversida > FL125.

04-10UTC: Område G1c,G3d: Molnöversida > FL125.

04-12UTC: Område G2a: Ingen prognos

06-12UTC: Område G1a,G2b,G2c,G3a,G3b,G3c: Ingen prognos

08-12UTC: Område G1b: Ingen prognos

10-12UTC: Område G1c,G3d: Ingen prognos


CB/TCU Moln
04-06UTC: Område G1a,G2b,G2c,G3a,G3b,G3c: ISOL EMBD CB

04-08UTC: Område G1b: ISOL EMBD CB

04-10UTC: Område G1c,G3d: ISOL EMBD CB

04-12UTC: Område G2a: Väntas inte förekomma under perioden

06-12UTC: Område G1a,G2b,G2c,G3a,G3b,G3c: Väntas inte förekomma under perioden

08-12UTC: Område G1b: Väntas inte förekomma under perioden

10-12UTC: Område G1c,G3d: Väntas inte förekomma under perioden


Nollgradersisoterm
04-06UTC: Noll grader FL090 - FL120.
06-08UTC: Noll grader FL075 - FL120.
08-10UTC: Noll grader FL085 - FL120.
10-12UTC: Noll grader FL090 - FL120.

Vind vid marken
04-06UTC: Område G3d: SV-V/5-19 knop, byar upp till 29 knop.
Område G2a: SV-V/4-19 knop, byar upp till 27 knop.
Område G3b: SV-V/6-18 knop, byar upp till 27 knop.
Område G1c: SV-V/4-18 knop, byar upp till 24 knop.
Område G1a: V/6-24 knop, byar upp till 32 knop.
Område G2b: SV-V/5-20 knop, byar upp till 28 knop.
Område G3a: V/7-15 knop, byar upp till 26 knop.
Område G1b: SV-V/5-24 knop, byar upp till 31 knop.
Område G2c: SV-V/7-17 knop, byar upp till 28 knop.
Område G3c: V/6-22 knop, byar upp till 30 knop.

06-08UTC: Område G3b: V/7-19 knop, byar upp till 27 knop.
Område G2a: V/7-19 knop, byar upp till 26 knop.
Område G2c: V/9-16 knop, byar upp till 28 knop.
Område G2b: SV-V/7-19 knop, byar upp till 28 knop.
Område G1a,G1b: V/8-23 knop, byar upp till 29 knop.
Område G3d: V/6-16 knop, byar upp till 28 knop.
Område G3a: V/7-15 knop, byar upp till 27 knop.
Område G1c: SV-V/7-18 knop, byar upp till 24 knop.
Område G3c: V/9-18 knop, byar upp till 28 knop.

08-10UTC: Område G2c: V/8-14 knop, byar upp till 26 knop.
Område G1b: V/8-19 knop, byar upp till 28 knop.
Område G3c: V/8-17 knop, byar upp till 27 knop.
Område G1c: SV-V/7-20 knop, byar upp till 26 knop.
Område G1a: V/8-20 knop, byar upp till 27 knop.
Område G3d: V/6-14 knop, byar upp till 25 knop.
Område G2b: SV-V/6-17 knop, byar upp till 25 knop.

08-12UTC: Område G3b: V/7-17 knop, byar upp till 26 knop.
Område G2a: SV-V/6-16 knop, byar upp till 25 knop.
Område G3a: V/7-13 knop, byar upp till 25 knop.

10-12UTC: Område G1a: SV-V/7-20 knop, byar upp till 26 knop.
Område G2b: SV-V/7-15 knop, byar upp till 26 knop.
Område G1c: SV-V/7-20 knop, byar upp till 25 knop.
Område G2c: V/7-13 knop, byar upp till 25 knop.
Område G3d: SV-V/6-14 knop, byar upp till 25 knop.
Område G1b: V/6-18 knop, byar upp till 27 knop.
Område G3c: V/7-16 knop, byar upp till 27 knop.


Vind och temperatur
2000ft:
04-06UTC: 260/33kt +8.
06-08UTC: 270/28kt +8.
08-10UTC: 260/25kt +9.
10-12UTC: 260/28kt +10.

FL50:
04-06UTC: 270/49kt +4.
06-08UTC: 270/43kt +4.
08-10UTC: 270/41kt +4.
10-12UTC: 270/40kt +4.

FL100:
04-06UTC: 260/52kt -1.
06-08UTC: 260/50kt -2.
08-10UTC: 270/41kt -2.
10-12UTC: 270/38kt -1.

Lägsta QNH
1009 hPa.

OBS! endast utbredd måttlig eller svår isbildning och turbulens prognostiseras i LLF.
Avsaknad av isbildning och turbulens i prognosen utesluter inte förekomst av lätt isbildning och turbulens.
För indikation på lätt isbildning, var vänlig kontrollera om prognosen för molntopp ligger högre än nollgradersisotermen.
Förekomst av TCU eller CB medför alltid en risk för måttlig eller svår isbildning och turbulens även om det inte framgår explicit av prognosen.





Spotting

Hur fungerar spotthjälpen och Vindkartan?

Markvind är ca 3-12 m/s med byar på 16 m/s.
Vind på 600 m ca 17 m/s.
Vind på 1500 m ca 25 m/s.
Vind på 3000 m ca 27 m/s.
YL-KAM flyger ca 14 m/s över marken på finalen.
Du driver ca 1204 m bakåt i frifall. (1605 m)
Lämplig spot är 63 sekunder eller 907 m efter gropen.
(91 s eller 1311 m)
För små grupper eller ensamhoppare bör man vänta 10-14 sekunder mellan grupperna.
För större grupper bör man vänta 21-25 sekunder mellan grupperna.


Vindkartan

Senast uppdaterad 06:15




All data kommer från LFV.se